Time;durP1;ratioP1;P1;durP2;ratioP2;P2;SDS_P1;SDS_P2;PMS_P1;PMS_P2;Temp;Humidity;BMP_temperature;BMP_pressure;BME280_temperature;BME280_humidity;BME280_pressure;Samples;Min_cycle;Max_cycle;Signal;HPM_P1;HPM_P2
2022/06/05 00:01:29;;;;;;;11.10;9.30;;;;;;;15.92;100.00;101884.88;5044342;28;20051;-67
2022/06/05 00:04:28;;;;;;;11.50;9.38;;;;;;;15.64;100.00;101873.53;5057203;28;20032;-68
2022/06/05 00:07:06;;;;;;;11.77;8.70;;;;;;;15.53;100.00;101872.81;5065845;28;20028;-67
2022/06/05 00:09:40;;;;;;;14.30;9.38;;;;;;;15.34;100.00;101864.41;5060823;28;20151;-67
2022/06/05 00:12:13;;;;;;;10.52;9.05;;;;;;;15.61;100.00;101874.94;5063171;28;20107;-67
2022/06/05 00:14:39;;;;;;;;;;;;;;;15.54;100.00;101873.63;5063367;28;20546;-67
2022/06/05 00:17:13;;;;;;;11.18;9.18;;;;;;;15.43;100.00;101873.72;5063453;28;20290;-67
2022/06/05 00:19:43;;;;;;;13.05;10.18;;;;;;;15.76;100.00;101875.94;5061848;28;20356;-67
2022/06/05 00:22:10;;;;;;;13.20;9.70;;;;;;;15.80;100.00;101872.28;5046056;28;20031;-67
2022/06/05 00:24:36;;;;;;;13.88;9.35;;;;;;;15.66;100.00;101862.16;5042964;28;20482;-68
2022/06/05 00:27:50;;;;;;;12.52;9.30;;;;;;;15.59;100.00;101863.38;5062801;28;20028;-68
2022/06/05 00:30:40;;;;;;;13.43;9.15;;;;;;;15.53;100.00;101860.94;5061914;28;20119;-67
2022/06/05 00:33:05;;;;;;;11.23;8.85;;;;;;;15.44;100.00;101858.78;5062554;28;20148;-67
2022/06/05 00:35:38;;;;;;;10.70;9.35;;;;;;;15.38;100.00;101859.97;5061586;28;20131;-66
2022/06/05 00:38:18;;;;;;;14.85;9.40;;;;;;;15.40;100.00;101846.66;5061423;28;20475;-66
2022/06/05 00:41:13;;;;;;;14.32;9.82;;;;;;;15.37;100.00;101844.47;5059309;28;20060;-69
2022/06/05 00:43:39;;;;;;;11.75;9.40;;;;;;;15.45;100.00;101840.28;5057920;28;20040;-67
2022/06/05 00:46:05;;;;;;;11.57;9.52;;;;;;;15.74;100.00;101842.19;5065026;28;20029;-67
2022/06/05 00:48:30;;;;;;;11.23;8.70;;;;;;;15.61;100.00;101844.53;5063126;28;20035;-67
2022/06/05 00:50:56;;;;;;;12.13;9.80;;;;;;;15.32;100.00;101841.78;5064086;28;20034;-67
2022/06/05 00:53:21;;;;;;;13.10;9.82;;;;;;;15.59;100.00;101841.25;5062578;28;20040;-67
2022/06/05 00:55:50;;;;;;;14.15;9.35;;;;;;;15.72;100.00;101842.47;5062059;28;20052;-67
2022/06/05 00:58:17;;;;;;;12.93;9.48;;;;;;;15.38;100.00;101835.09;5061665;28;20032;-67
2022/06/05 01:00:48;;;;;;;12.65;9.27;;;;;;;15.32;100.00;101836.25;5062790;28;20024;-67
2022/06/05 01:03:15;;;;;;;12.95;10.23;;;;;;;15.51;100.00;101843.81;5065715;28;20032;-66
2022/06/05 01:05:41;;;;;;;11.93;9.88;;;;;;;15.40;100.00;101849.44;5063691;28;20086;-68
2022/06/05 01:08:07;;;;;;;11.60;9.13;;;;;;;15.18;100.00;101849.91;5063329;28;20505;-67
2022/06/05 01:10:55;;;;;;;12.00;9.40;;;;;;;15.65;100.00;101835.66;5060911;28;20060;-66
2022/06/05 01:13:29;;;;;;;10.95;9.20;;;;;;;15.80;100.00;101843.81;5062217;28;20025;-67
2022/06/05 01:15:58;;;;;;;11.73;8.70;;;;;;;15.49;100.00;101827.50;5062866;28;20051;-66
2022/06/05 01:18:30;;;;;;;13.93;8.93;;;;;;;15.75;100.00;101824.50;5061626;28;20055;-67
2022/06/05 01:21:07;;;;;;;12.52;9.30;;;;;;;15.42;100.00;101816.81;5063763;28;20021;-66
2022/06/05 01:23:58;;;;;;;12.60;9.55;;;;;;;15.23;100.00;101825.00;5059582;28;20086;-67
2022/06/05 01:26:39;;;;;;;10.55;8.98;;;;;;;15.73;100.00;101829.50;5042928;28;20043;-67
2022/06/05 01:29:10;;;;;;;11.50;9.57;;;;;;;15.63;100.00;101842.31;5041151;28;20051;-67
2022/06/05 01:31:50;;;;;;;12.30;8.85;;;;;;;16.02;100.00;101846.06;5039952;28;20024;-66
2022/06/05 01:34:21;;;;;;;10.43;9.30;;;;;;;15.51;100.00;101857.63;5043512;28;20098;-67
2022/06/05 01:36:56;;;;;;;11.45;8.98;;;;;;;16.12;100.00;101883.84;5041784;28;20071;-67
2022/06/05 01:39:30;;;;;;;11.43;8.93;;;;;;;16.21;100.00;101914.47;5040015;28;20029;-68
2022/06/05 01:42:01;;;;;;;14.25;9.57;;;;;;;16.30;100.00;101921.00;5040995;28;20025;-67
2022/06/05 01:44:41;;;;;;;13.00;9.05;;;;;;;16.48;100.00;101905.56;5047486;28;20132;-67
2022/06/05 01:47:13;;;;;;;10.63;8.55;;;;;;;16.58;100.00;101922.03;5046346;28;20020;-67
2022/06/05 01:49:54;;;;;;;10.02;8.27;;;;;;;16.59;100.00;101936.69;5045710;28;20033;-67
2022/06/05 01:52:35;;;;;;;13.48;8.52;;;;;;;16.42;100.00;101909.50;5047159;28;20691;-66
2022/06/05 01:55:18;;;;;;;12.38;9.27;;;;;;;16.42;100.00;101903.97;5042107;28;20544;-66
2022/06/05 01:57:44;;;;;;;12.57;8.60;;;;;;;16.42;100.00;101915.03;5043149;28;20099;-66
2022/06/05 02:00:14;;;;;;;9.75;8.77;;;;;;;16.46;100.00;101903.09;5046224;28;20035;-67
2022/06/05 02:02:55;;;;;;;10.00;8.77;;;;;;;16.20;100.00;101885.13;5045850;28;20094;-66
2022/06/05 02:05:28;;;;;;;12.25;8.95;;;;;;;16.41;100.00;101882.94;5047621;28;20112;-67
2022/06/05 02:07:58;;;;;;;;;;;;;;;16.21;100.00;101889.56;5044396;28;20021;-67
2022/06/05 02:10:36;;;;;;;10.63;8.48;;;;;;;15.76;100.00;101875.94;5043499;28;19932;-68
2022/06/05 02:13:03;;;;;;;10.27;9.27;;;;;;;15.64;100.00;101873.53;5028062;28;20491;-67
2022/06/05 02:15:29;;;;;;;12.05;9.40;;;;;;;15.67;100.00;101878.47;5047250;28;20033;-67
2022/06/05 02:18:00;;;;;;;13.25;9.70;;;;;;;14.91;100.00;101872.47;5044587;28;20055;-67
2022/06/05 02:20:26;;;;;;;14.50;10.50;;;;;;;14.82;100.00;101868.66;5046921;28;20112;-67
2022/06/05 02:22:54;;;;;;;13.13;9.90;;;;;;;15.21;100.00;101860.34;5045540;28;20025;-68
2022/06/05 02:25:24;;;;;;;12.10;10.05;;;;;;;15.12;100.00;101853.81;5041747;28;20688;-68
2022/06/05 02:27:50;;;;;;;15.35;10.50;;;;;;;15.27;100.00;101858.41;5044610;28;20032;-67
2022/06/05 02:30:16;;;;;;;14.43;10.15;;;;;;;15.38;100.00;101846.16;5046809;28;20039;-68
2022/06/05 02:33:16;;;;;;;12.52;10.00;;;;;;;15.37;100.00;101844.47;5027972;28;20033;-68
2022/06/05 02:35:54;;;;;;;14.02;10.32;;;;;;;14.82;100.00;101835.53;5044946;28;20032;-68
2022/06/05 02:38:36;;;;;;;12.80;10.25;;;;;;;15.17;100.00;101826.16;5046041;28;20033;-68
2022/06/05 02:41:19;;;;;;;15.00;10.75;;;;;;;15.18;100.00;101813.16;5064787;28;20509;-67
2022/06/05 02:44:29;;;;;;;14.70;11.02;;;;;;;15.14;100.00;101806.59;5062766;28;20225;-68
2022/06/05 02:47:15;;;;;;;14.13;10.82;;;;;;;14.94;100.00;101794.59;5063120;28;20044;-68
2022/06/05 02:49:55;;;;;;;14.50;11.55;;;;;;;14.84;100.00;101778.13;5061734;28;20402;-67
2022/06/05 02:52:23;;;;;;;15.73;10.73;;;;;;;14.65;100.00;101770.50;5066102;28;20040;-68
2022/06/05 02:55:21;;;;;;;13.20;10.55;;;;;;;14.61;100.00;101761.16;5058322;28;20028;-66
2022/06/05 02:57:48;;;;;;;14.02;10.95;;;;;;;14.52;100.00;101727.78;5060473;28;20166;-68
2022/06/05 03:00:16;;;;;;;14.25;10.98;;;;;;;14.76;100.00;101705.00;5064630;28;20028;-66
2022/06/05 03:05:26;;;;;;;12.68;10.60;;;;;;;14.86;100.00;101679.25;5047107;28;20457;-68
2022/06/05 03:07:51;;;;;;;13.68;11.50;;;;;;;14.72;100.00;101667.25;5026138;28;20049;-68
2022/06/05 03:10:17;;;;;;;14.75;11.40;;;;;;;14.69;100.00;101644.63;5040507;28;20520;-67
2022/06/05 03:12:43;;;;;;;16.13;12.48;;;;;;;14.25;100.00;101625.38;5044567;28;20079;-68
2022/06/05 03:15:09;;;;;;;19.02;13.10;;;;;;;14.49;100.00;101623.53;5045112;28;20398;-68
2022/06/05 03:17:34;;;;;;;15.50;12.93;;;;;;;14.40;100.00;101616.19;5046212;28;20057;-68
2022/06/05 03:20:00;;;;;;;17.52;13.32;;;;;;;14.02;100.00;101619.50;5043066;28;20670;-68
2022/06/05 03:22:26;;;;;;;19.48;13.00;;;;;;;14.13;100.00;101617.47;5043504;28;20490;-67
2022/06/05 03:24:52;;;;;;;20.65;14.15;;;;;;;14.19;100.00;101605.31;5037758;28;20025;-68
2022/06/05 03:27:19;;;;;;;19.80;13.93;;;;;;;13.98;100.00;101607.38;5043925;28;20029;-68
2022/06/05 03:29:45;;;;;;;17.77;13.93;;;;;;;13.63;100.00;101589.16;5043946;28;20290;-69
2022/06/05 03:32:11;;;;;;;20.35;14.30;;;;;;;14.00;100.00;101585.03;5045254;28;20053;-69
2022/06/05 03:34:36;;;;;;;19.90;14.20;;;;;;;13.76;100.00;101586.59;5044901;28;20021;-68
2022/06/05 03:37:04;;;;;;;19.13;14.48;;;;;;;13.87;100.00;101575.47;5044347;28;20037;-68
2022/06/05 03:39:31;;;;;;;20.75;14.93;;;;;;;13.76;100.00;101575.56;5041751;28;20025;-68
2022/06/05 03:41:56;;;;;;;18.50;15.02;;;;;;;13.77;100.00;101568.94;5041167;28;20036;-68
2022/06/05 03:44:22;;;;;;;19.92;15.00;;;;;;;13.59;100.00;101572.34;5011112;28;20025;-68
2022/06/05 03:46:47;;;;;;;22.73;15.77;;;;;;;13.63;100.00;101561.59;5042572;28;20056;-68
2022/06/05 03:49:13;;;;;;;21.63;15.98;;;;;;;13.60;100.00;101561.03;5044014;28;20096;-68
2022/06/05 03:51:38;;;;;;;20.38;15.50;;;;;;;13.57;100.00;101556.09;5043830;28;20459;-68
2022/06/05 03:54:04;;;;;;;22.77;16.48;;;;;;;13.40;100.00;101559.25;5039276;28;20440;-68
2022/06/05 03:56:30;;;;;;;23.67;16.48;;;;;;;13.86;100.00;101563.66;5043363;28;20389;-69
2022/06/05 03:58:57;;;;;;;24.50;16.30;;;;;;;13.76;100.00;101560.97;5039499;28;20491;-69
2022/06/05 04:01:24;;;;;;;23.60;15.95;;;;;;;13.79;100.00;101565.91;5044165;28;20065;-68
2022/06/05 04:03:51;;;;;;;21.55;16.00;;;;;;;13.53;100.00;101555.03;5042628;28;20033;-68
2022/06/05 04:06:20;;;;;;;23.73;16.02;;;;;;;13.52;100.00;101564.41;5042454;28;20063;-68
2022/06/05 04:08:46;;;;;;;23.23;15.52;;;;;;;13.45;100.00;101550.13;5037865;28;20029;-68
2022/06/05 04:11:14;;;;;;;23.40;15.60;;;;;;;13.68;100.00;101550.56;5027074;28;20513;-68
2022/06/05 04:13:40;;;;;;;21.90;15.05;;;;;;;13.82;100.00;101559.78;5042029;28;20032;-68
2022/06/05 04:16:16;;;;;;;21.27;15.30;;;;;;;13.90;100.00;101577.66;5044812;28;20136;-68
2022/06/05 04:18:42;;;;;;;22.45;16.50;;;;;;;13.88;100.00;101583.47;5043691;28;20432;-70
2022/06/05 04:21:10;;;;;;;17.88;14.90;;;;;;;14.02;100.00;101583.66;5042941;28;20041;-68
2022/06/05 04:23:36;;;;;;;21.30;15.55;;;;;;;13.95;100.00;101574.88;5042258;28;20025;-68
2022/06/05 04:26:05;;;;;;;18.60;14.52;;;;;;;13.82;100.00;101578.28;5052754;28;20475;-68
2022/06/05 04:28:31;;;;;;;20.25;15.57;;;;;;;13.96;100.00;101582.84;5063089;28;20035;-67
2022/06/05 04:30:56;;;;;;;21.48;15.10;;;;;;;13.61;100.00;101581.19;5062752;28;20028;-68
2022/06/05 04:33:24;;;;;;;21.52;15.43;;;;;;;13.55;100.00;101574.84;5064689;28;20024;-69
2022/06/05 04:35:50;;;;;;;21.55;15.10;;;;;;;13.75;100.00;101592.38;5044954;28;20036;-67
2022/06/05 04:38:15;;;;;;;22.50;15.82;;;;;;;13.57;100.00;101594.69;5063379;28;20591;-68
2022/06/05 04:40:41;;;;;;;23.42;15.48;;;;;;;13.62;100.00;101582.00;5060241;28;20051;-68
2022/06/05 04:43:08;;;;;;;19.70;15.68;;;;;;;13.41;100.00;101582.09;5063035;28;20475;-68
2022/06/05 04:45:33;;;;;;;21.67;16.30;;;;;;;13.57;100.00;101585.59;5064176;28;20447;-68
2022/06/05 04:47:59;;;;;;;19.38;16.45;;;;;;;13.32;100.00;101573.59;5060655;28;20033;-69
2022/06/05 04:50:24;;;;;;;22.75;15.48;;;;;;;13.58;100.00;101579.00;5045643;28;20064;-68
2022/06/05 04:52:50;;;;;;;22.85;15.82;;;;;;;13.68;100.00;101569.84;5045435;28;20035;-67
2022/06/05 04:55:15;;;;;;;24.60;16.20;;;;;;;13.75;100.00;101573.09;5024567;28;20056;-68
2022/06/05 04:57:43;;;;;;;22.15;17.00;;;;;;;13.81;100.00;101563.69;5062248;28;20494;-68
2022/06/05 05:00:09;;;;;;;20.35;15.63;;;;;;;13.92;100.00;101559.75;5060767;28;20247;-68
2022/06/05 05:02:35;;;;;;;20.50;16.13;;;;;;;13.80;100.00;101551.00;5063317;28;21594;-70
2022/06/05 05:05:00;;;;;;;21.05;16.00;;;;;;;13.63;100.00;101542.31;5044463;28;20032;-69
2022/06/05 05:07:25;;;;;;;26.15;17.30;;;;;;;13.54;100.00;101542.94;5062972;28;20377;-69
2022/06/05 05:09:51;;;;;;;22.15;15.82;;;;;;;13.43;100.00;101546.84;5058900;28;20032;-69
2022/06/05 05:12:18;;;;;;;23.90;15.68;;;;;;;13.48;100.00;101544.06;5043728;28;20020;-68
2022/06/05 05:14:43;;;;;;;25.25;16.83;;;;;;;13.60;100.00;101547.28;5063673;28;20028;-68
2022/06/05 05:17:09;;;;;;;20.15;17.05;;;;;;;13.39;100.00;101552.06;5061727;28;20039;-67
2022/06/05 05:19:34;;;;;;;20.85;16.40;;;;;;;13.93;100.00;101564.13;5067719;28;20032;-68
2022/06/05 05:21:59;;;;;;;23.20;16.70;;;;;;;13.74;100.00;101574.19;5049167;28;20441;-68
2022/06/05 05:24:25;;;;;;;22.33;16.85;;;;;;;13.58;100.00;101571.53;5061422;28;20443;-69
2022/06/05 05:26:52;;;;;;;26.58;17.23;;;;;;;13.85;100.00;101569.44;5043993;28;20084;-69
2022/06/05 05:29:18;;;;;;;23.20;16.30;;;;;;;13.82;100.00;101570.00;5045354;28;20455;-69
2022/06/05 05:31:45;;;;;;;21.58;16.13;;;;;;;13.76;100.00;101572.81;5046734;28;20049;-69
2022/06/05 05:34:13;;;;;;;25.83;17.80;;;;;;;13.90;100.00;101572.16;5028012;28;20037;-68
2022/06/05 05:36:38;;;;;;;25.30;16.70;;;;;;;13.83;100.00;101572.47;5029332;28;20041;-69
2022/06/05 05:42:07;;;;;;;22.30;16.70;;;;;;;13.77;100.00;101576.38;5046387;28;20095;-68
2022/06/05 05:44:40;;;;;;;20.27;16.38;;;;;;;13.86;100.00;101580.19;5032973;28;20618;-69
2022/06/05 05:47:06;;;;;;;;;;;;;;;13.82;100.00;101565.31;5049727;28;20039;-69
2022/06/05 05:49:32;;;;;;;22.70;16.20;;;;;;;13.84;100.00;101552.09;5047775;28;19912;-69
2022/06/05 05:51:58;;;;;;;30.27;18.15;;;;;;;13.87;100.00;101554.28;5044987;28;20033;-69
2022/06/05 05:54:24;;;;;;;23.30;17.35;;;;;;;14.24;100.00;101561.13;5043461;28;20078;-68
2022/06/05 05:56:51;;;;;;;23.25;17.15;;;;;;;14.43;100.00;101563.16;5044812;28;20048;-68
2022/06/05 05:59:19;;;;;;;24.40;18.23;;;;;;;14.11;100.00;101559.84;5041024;28;20432;-68
2022/06/05 06:01:45;;;;;;;27.05;17.52;;;;;;;14.15;100.00;101555.41;5042531;28;20020;-69
2022/06/05 06:04:10;;;;;;;22.80;17.10;;;;;;;14.04;100.00;101551.09;5043854;28;20554;-69
2022/06/05 06:06:39;;;;;;;24.45;17.30;;;;;;;14.38;100.00;101565.97;5043352;28;20040;-69
2022/06/05 06:09:05;;;;;;;23.65;17.63;;;;;;;14.66;100.00;101567.94;5040089;28;20029;-67
2022/06/05 06:11:33;;;;;;;22.25;17.15;;;;;;;14.70;100.00;101580.03;5061139;28;20089;-68
2022/06/05 06:14:02;;;;;;;24.88;17.85;;;;;;;13.96;100.00;101573.78;5060628;28;20044;-68
2022/06/05 06:16:28;;;;;;;22.55;17.30;;;;;;;14.31;100.00;101566.31;5064318;28;20064;-68
2022/06/05 06:18:55;;;;;;;18.38;16.27;;;;;;;14.34;100.00;101574.00;5063790;28;20089;-68
2022/06/05 06:21:22;;;;;;;22.27;17.05;;;;;;;14.53;100.00;101580.44;5062390;28;20042;-68
2022/06/05 06:23:48;;;;;;;21.65;16.33;;;;;;;14.80;100.00;101575.50;5059481;28;20040;-69
2022/06/05 06:26:14;;;;;;;21.27;16.70;;;;;;;14.72;100.00;101573.41;5058565;28;20029;-67
2022/06/05 06:28:40;;;;;;;23.02;18.10;;;;;;;14.64;100.00;101567.41;5062786;28;20020;-68
2022/06/05 06:31:08;;;;;;;24.95;17.95;;;;;;;14.81;100.00;101568.91;5045543;28;20040;-67
2022/06/05 06:33:34;;;;;;;24.20;17.27;;;;;;;14.28;100.00;101553.09;5064198;28;20475;-68
2022/06/05 06:36:05;;;;;;;22.25;17.33;;;;;;;14.50;100.00;101563.66;5062084;28;20043;-69
2022/06/05 06:38:33;;;;;;;22.58;17.30;;;;;;;14.55;100.00;101565.53;5063843;28;20408;-69
2022/06/05 06:41:07;;;;;;;22.35;17.77;;;;;;;14.85;100.00;101565.22;5062555;28;20114;-68
2022/06/05 06:43:33;;;;;;;20.80;17.58;;;;;;;14.67;100.00;101566.81;5062888;28;20085;-69
2022/06/05 06:46:01;;;;;;;24.00;16.67;;;;;;;15.22;100.00;101569.22;5065671;28;20028;-68
2022/06/05 06:48:28;;;;;;;22.63;16.02;;;;;;;14.82;100.00;101570.50;5031502;28;20402;-68
2022/06/05 06:50:55;;;;;;;19.65;17.15;;;;;;;15.10;100.00;101570.75;5064525;28;20035;-68
2022/06/05 06:53:21;;;;;;;24.48;18.23;;;;;;;15.12;100.00;101563.81;5065316;28;20843;-70
2022/06/05 06:55:47;;;;;;;21.73;16.77;;;;;;;15.01;100.00;101568.63;5061828;28;20021;-69
2022/06/05 06:58:13;;;;;;;24.88;16.77;;;;;;;15.24;100.00;101568.91;5061644;28;20132;-69
2022/06/05 07:00:38;;;;;;;23.98;17.85;;;;;;;14.94;100.00;101565.41;5030612;28;20028;-69
2022/06/05 07:03:05;;;;;;;22.40;16.80;;;;;;;14.99;100.00;101559.03;5063887;28;20036;-69
2022/06/05 07:05:32;;;;;;;21.30;16.70;;;;;;;14.94;100.00;101550.78;5061686;28;20107;-69
2022/06/05 07:07:58;;;;;;;22.10;17.00;;;;;;;14.86;100.00;101549.50;5063227;28;20313;-69
2022/06/05 07:10:23;;;;;;;23.70;17.38;;;;;;;15.38;100.00;101550.50;5056905;28;20032;-70
2022/06/05 07:12:49;;;;;;;22.77;17.90;;;;;;;14.93;100.00;101549.97;5062750;28;20029;-70
2022/06/05 07:15:14;;;;;;;23.00;18.13;;;;;;;14.76;100.00;101549.59;5026293;28;20020;-69
2022/06/05 07:17:40;;;;;;;24.70;17.58;;;;;;;15.18;100.00;101543.31;5063316;28;20036;-68
2022/06/05 07:20:07;;;;;;;25.98;18.33;;;;;;;15.18;100.00;101542.47;5061751;28;20040;-68
2022/06/05 07:22:33;;;;;;;22.30;17.95;;;;;;;14.89;100.00;101524.88;5046980;28;20047;-69
2022/06/05 07:25:00;;;;;;;21.83;18.17;;;;;;;15.12;100.00;101525.16;5061447;28;20447;-68
2022/06/05 07:27:27;;;;;;;23.20;18.45;;;;;;;15.03;100.00;101522.22;5043288;28;20033;-69
2022/06/05 07:29:53;;;;;;;22.48;17.50;;;;;;;14.95;100.00;101525.63;5064842;28;20032;-70
2022/06/05 07:32:20;;;;;;;23.88;18.50;;;;;;;14.82;100.00;101518.06;5044710;28;20558;-70
2022/06/05 07:34:46;;;;;;;22.70;17.98;;;;;;;15.33;100.00;101527.63;5044611;28;20037;-69
2022/06/05 07:37:13;;;;;;;21.95;18.45;;;;;;;15.20;100.00;101516.22;5062151;28;20092;-70
2022/06/05 07:39:40;;;;;;;23.73;18.48;;;;;;;15.10;100.00;101516.31;5051683;28;20025;-69
2022/06/05 07:42:07;;;;;;;21.55;17.65;;;;;;;15.40;100.00;101506.00;5022864;28;20055;-69
2022/06/05 07:44:36;;;;;;;25.30;19.30;;;;;;;14.82;100.00;101505.09;5026445;28;20060;-68
2022/06/05 07:47:08;;;;;;;23.20;18.63;;;;;;;15.33;100.00;101498.09;5043106;28;20111;-68
2022/06/05 07:49:39;;;;;;;24.25;18.55;;;;;;;15.27;100.00;101493.75;5025246;28;20051;-69
2022/06/05 07:54:59;;;;;;;21.38;17.92;;;;;;;15.93;100.00;101493.84;5043178;28;20062;-69
2022/06/05 07:57:24;;;;;;;22.65;18.23;;;;;;;15.40;100.00;101484.72;5047130;28;20809;-67
2022/06/05 07:59:50;;;;;;;23.17;16.95;;;;;;;15.55;100.00;101488.38;5045424;28;20454;-67
2022/06/05 08:02:24;;;;;;;26.45;18.33;;;;;;;15.76;100.00;101478.66;5061520;28;20466;-68
2022/06/05 08:04:51;;;;;;;21.92;17.42;;;;;;;16.37;100.00;101478.69;5052827;28;20472;-66
2022/06/05 08:07:20;;;;;;;22.33;18.25;;;;;;;16.47;100.00;101483.22;5044284;28;20021;-68
2022/06/05 08:09:46;;;;;;;25.15;18.48;;;;;;;16.53;100.00;101480.03;5041007;28;20032;-68
2022/06/05 08:12:14;;;;;;;22.75;17.05;;;;;;;16.74;100.00;101474.06;5038665;28;20409;-67
2022/06/05 08:14:41;;;;;;;22.92;19.02;;;;;;;16.66;100.00;101475.63;5044947;28;20509;-67
2022/06/05 08:17:11;;;;;;;20.95;17.45;;;;;;;16.86;100.00;101455.03;5041724;28;20123;-68
2022/06/05 08:19:39;;;;;;;19.98;17.38;;;;;;;16.81;100.00;101457.06;5025363;28;20105;-68
2022/06/05 08:22:05;;;;;;;21.88;18.20;;;;;;;17.24;100.00;101449.19;5043498;28;20051;-68
2022/06/05 08:24:30;;;;;;;19.92;17.83;;;;;;;17.51;100.00;101449.41;5037055;28;20051;-68
2022/06/05 08:26:55;;;;;;;19.92;17.08;;;;;;;17.73;100.00;101434.72;5037718;28;20530;-67
2022/06/05 08:29:21;;;;;;;20.25;17.38;;;;;;;17.60;100.00;101439.19;5040840;28;20032;-69
2022/06/05 08:31:47;;;;;;;19.10;16.50;;;;;;;17.54;100.00;101437.69;5062737;28;20439;-68
2022/06/05 08:34:14;;;;;;;21.65;16.92;;;;;;;17.75;100.00;101432.44;5062126;28;20454;-65
2022/06/05 08:36:41;;;;;;;21.85;16.98;;;;;;;17.09;100.00;101436.50;5037950;28;20483;-68
2022/06/05 08:42:22;;;;;;;17.08;15.30;;;;;;;18.00;100.00;101439.31;5054516;28;20059;-67
2022/06/05 08:45:05;;;;;;;19.00;16.67;;;;;;;18.65;100.00;101448.88;5047865;28;20028;-67
2022/06/05 08:48:02;;;;;;;18.33;15.93;;;;;;;18.44;100.00;101439.50;5043867;28;20518;-66
2022/06/05 08:50:55;;;;;;;16.63;15.00;;;;;;;18.00;100.00;101454.00;5039612;28;20088;-68
2022/06/05 08:53:43;;;;;;;19.88;16.13;;;;;;;18.67;100.00;101451.34;5040303;28;20109;-67
2022/06/05 08:56:32;;;;;;;17.20;15.57;;;;;;;18.66;100.00;101467.19;5039899;28;20049;-66
2022/06/05 08:59:09;;;;;;;18.08;16.25;;;;;;;19.20;100.00;101469.78;5041538;28;20730;-67
2022/06/05 09:01:46;;;;;;;16.95;15.30;;;;;;;19.10;100.00;101483.97;5041510;28;20758;-68
2022/06/05 09:04:25;;;;;;;17.98;15.50;;;;;;;19.68;100.00;101481.88;5056786;28;20102;-67
2022/06/05 09:06:55;;;;;;;19.10;15.82;;;;;;;19.78;100.00;101486.31;5061215;28;20442;-67
2022/06/05 09:09:25;;;;;;;19.88;16.95;;;;;;;20.19;100.00;101487.72;5051455;28;20024;-66
2022/06/05 09:11:58;;;;;;;17.90;16.20;;;;;;;20.47;100.00;101479.75;5055848;28;20121;-67
2022/06/05 09:14:39;;;;;;;17.80;16.05;;;;;;;19.99;100.00;101483.69;5055779;28;20033;-66
2022/06/05 09:17:25;;;;;;;16.77;15.07;;;;;;;19.85;100.00;101477.47;5051906;28;20024;-66
2022/06/05 09:19:52;;;;;;;17.88;15.98;;;;;;;20.10;100.00;101484.13;5060965;28;20024;-66
2022/06/05 09:22:59;;;;;;;19.08;17.02;;;;;;;19.77;100.00;101473.56;5060792;28;20029;-66
2022/06/05 09:25:42;;;;;;;18.13;14.95;;;;;;;19.62;100.00;101474.84;5015595;28;20120;-67
2022/06/05 09:28:36;;;;;;;26.33;16.80;;;;;;;19.83;100.00;101469.47;5057346;28;20128;-67
2022/06/05 09:31:32;;;;;;;18.70;15.60;;;;;;;20.08;100.00;101466.94;5060030;28;20233;-66
2022/06/05 09:34:04;;;;;;;17.45;15.45;;;;;;;19.65;100.00;101477.78;5062379;28;20032;-66
2022/06/05 09:36:32;;;;;;;17.85;15.93;;;;;;;20.08;100.00;101478.88;5061404;28;20017;-67
2022/06/05 09:39:10;;;;;;;17.45;15.65;;;;;;;19.84;100.00;101468.31;5060070;28;20115;-68
2022/06/05 09:42:07;;;;;;;16.83;15.10;;;;;;;20.26;100.00;101473.28;5055949;28;20113;-67
2022/06/05 09:44:57;;;;;;;19.38;15.75;;;;;;;20.43;100.00;101470.44;5059056;28;20517;-67
2022/06/05 09:47:29;;;;;;;16.63;14.65;;;;;;;20.06;100.00;101470.06;5042751;28;20527;-66
2022/06/05 09:49:59;;;;;;;18.15;16.33;;;;;;;19.41;100.00;101467.19;5062305;28;20032;-66
2022/06/05 09:52:29;;;;;;;20.65;16.50;;;;;;;19.46;100.00;101463.41;5061521;28;20478;-66
2022/06/05 09:54:55;;;;;;;17.55;15.55;;;;;;;18.77;100.00;101470.47;5060919;28;20107;-68
2022/06/05 10:00:42;;;;;;;19.77;15.77;;;;;;;19.10;100.00;101468.13;5061668;28;20098;-67
2022/06/05 10:03:14;;;;;;;18.83;16.23;;;;;;;18.21;100.00;101467.31;5061777;28;20024;-67
2022/06/05 10:05:46;;;;;;;21.80;15.35;;;;;;;17.88;100.00;101464.84;5065381;28;20047;-66
2022/06/05 10:08:20;;;;;;;17.52;15.73;;;;;;;17.88;100.00;101461.28;5063807;28;20343;-66
2022/06/05 10:10:48;;;;;;;18.42;16.52;;;;;;;17.40;100.00;101451.63;5063681;28;20033;-67
2022/06/05 10:13:25;;;;;;;20.85;16.55;;;;;;;17.50;100.00;101450.56;5062590;28;20409;-67
2022/06/05 10:16:22;;;;;;;19.08;17.08;;;;;;;18.43;100.00;101446.19;5065105;28;20028;-67
2022/06/05 10:19:02;;;;;;;19.70;15.77;;;;;;;17.72;100.00;101452.50;5034750;28;20131;-67
2022/06/05 10:21:36;;;;;;;22.45;16.67;;;;;;;17.97;100.00;101442.72;5047133;28;20188;-66
2022/06/05 10:24:23;;;;;;;19.83;16.85;;;;;;;17.98;100.00;101436.84;5063484;28;20025;-66
2022/06/05 10:26:52;;;;;;;19.30;16.42;;;;;;;19.06;100.00;101438.53;5061904;28;20095;-67
2022/06/05 10:29:21;;;;;;;20.10;16.13;;;;;;;18.46;100.00;101442.78;5064752;28;20150;-67
2022/06/05 10:32:13;;;;;;;18.58;16.67;;;;;;;18.25;100.00;101442.53;5062979;28;20423;-66
2022/06/05 10:34:54;;;;;;;18.70;15.82;;;;;;;18.10;100.00;101424.34;5064322;28;20039;-65
2022/06/05 10:37:41;;;;;;;19.17;16.42;;;;;;;19.05;100.00;101409.09;5065976;28;20237;-66
2022/06/05 10:40:15;;;;;;;17.50;15.55;;;;;;;19.53;100.00;101405.34;5062641;28;20116;-67
2022/06/05 10:42:52;;;;;;;19.77;17.08;;;;;;;19.80;100.00;101412.50;5058144;28;20232;-65
2022/06/05 10:45:24;;;;;;;18.75;15.00;;;;;;;20.11;100.00;101422.56;5049594;28;20075;-67
2022/06/05 10:47:55;;;;;;;20.83;17.55;;;;;;;19.57;100.00;101409.06;5043489;28;20090;-66
2022/06/05 10:50:37;;;;;;;19.73;15.77;;;;;;;19.86;100.00;101409.53;5045000;28;20056;-67
2022/06/05 10:53:05;;;;;;;18.67;16.65;;;;;;;20.32;100.00;101397.56;5042956;28;20424;-66
2022/06/05 10:56:08;;;;;;;19.40;17.42;;;;;;;19.77;100.00;101396.47;5041708;28;20467;-66
2022/06/05 10:58:50;;;;;;;20.52;18.40;;;;;;;19.89;100.00;101394.97;5038727;28;20083;-66
2022/06/05 11:01:48;;;;;;;20.80;18.55;;;;;;;19.38;100.00;101395.53;5045107;28;20052;-68
2022/06/05 11:04:40;;;;;;;20.85;18.65;;;;;;;19.52;100.00;101388.97;5044581;28;20033;-67
2022/06/05 11:07:53;;;;;;;20.88;18.63;;;;;;;19.60;100.00;101386.16;5043120;28;20078;-67
2022/06/05 11:13:44;;;;;;;20.90;18.77;;;;;;;20.20;100.00;101378.81;5061258;28;20035;-66
2022/06/05 11:16:35;;;;;;;19.80;17.70;;;;;;;20.03;100.00;101378.88;5059430;28;20490;-68
2022/06/05 11:19:23;;;;;;;20.33;17.15;;;;;;;20.16;100.00;101377.81;5061780;28;20032;-67
2022/06/05 11:21:51;;;;;;;21.48;19.20;;;;;;;20.27;100.00;101385.81;5060628;28;20455;-70
2022/06/05 11:24:33;;;;;;;20.80;18.20;;;;;;;20.34;100.00;101380.53;5056039;28;20074;-66
2022/06/05 11:27:10;;;;;;;24.52;18.23;;;;;;;19.92;100.00;101372.03;5040707;28;20157;-67
2022/06/05 11:29:59;;;;;;;19.98;17.83;;;;;;;19.89;100.00;101376.31;5043317;28;20040;-66
2022/06/05 11:32:28;;;;;;;19.20;17.23;;;;;;;20.11;100.00;101366.88;5044391;28;20025;-67
2022/06/05 11:35:18;;;;;;;22.48;16.58;;;;;;;20.35;100.00;101362.69;5040115;28;20495;-66
2022/06/05 11:37:50;;;;;;;22.80;19.27;;;;;;;19.92;100.00;101364.53;5042383;28;20163;-67
2022/06/05 11:40:24;;;;;;;19.20;17.20;;;;;;;19.44;100.00;101368.38;5039996;28;20025;-65
2022/06/05 11:43:17;;;;;;;20.15;18.00;;;;;;;19.66;100.00;101364.59;5040720;28;20765;-67
2022/06/05 11:46:09;;;;;;;22.83;17.90;;;;;;;20.28;100.00;101359.59;5040611;28;20471;-67